createdAt,value
2023-02-02T00:01:01.106Z,91.36
2023-02-02T00:03:27.471Z,91.38
2023-02-02T00:05:54.238Z,91.40
2023-02-02T00:08:21.860Z,91.50
2023-02-02T00:10:50.400Z,91.41
2023-02-02T00:13:17.472Z,91.30
2023-02-02T00:15:44.041Z,91.35
2023-02-02T00:18:10.431Z,90.91
2023-02-02T00:20:36.868Z,91.13
2023-02-02T00:23:04.176Z,91.43
2023-02-02T00:25:31.468Z,91.57
2023-02-02T00:27:58.008Z,91.53
2023-02-02T00:30:24.551Z,91.53
2023-02-02T00:32:52.946Z,91.57
2023-02-02T00:35:20.242Z,91.44
2023-02-02T00:37:46.653Z,91.62
2023-02-02T00:40:13.182Z,91.84
2023-02-02T00:42:39.616Z,91.82
2023-02-02T00:45:18.889Z,91.40
2023-02-02T00:47:48.201Z,91.86
2023-02-02T00:50:17.606Z,91.78
2023-02-02T00:52:43.964Z,91.68
2023-02-02T00:55:12.176Z,91.56
2023-02-02T00:57:38.965Z,91.35
2023-02-02T01:00:07.550Z,91.39
2023-02-02T01:02:35.300Z,91.94
2023-02-02T01:05:02.154Z,91.40
2023-02-02T01:07:28.973Z,91.63
2023-02-02T01:09:56.840Z,91.66
2023-02-02T01:12:23.422Z,91.73
2023-02-02T01:14:49.897Z,91.49
2023-02-02T01:17:16.358Z,91.51
2023-02-02T01:19:42.781Z,91.55
2023-02-02T01:22:09.288Z,91.27
2023-02-02T01:24:35.681Z,91.11
2023-02-02T01:27:02.094Z,91.42
2023-02-02T01:29:28.503Z,91.23
2023-02-02T01:31:55.315Z,91.29
2023-02-02T01:34:21.876Z,91.33
2023-02-02T01:36:48.528Z,91.30
2023-02-02T01:39:14.912Z,91.40
2023-02-02T01:41:42.122Z,91.33
2023-02-02T01:44:46.005Z,91.09
2023-02-02T01:47:12.999Z,91.27
2023-02-02T01:49:41.087Z,91.25
2023-02-02T01:52:10.075Z,91.42
2023-02-02T01:54:41.818Z,91.37
2023-02-02T01:57:28.805Z,91.33
2023-02-02T01:59:59.173Z,91.35
2023-02-02T02:02:27.693Z,91.05
2023-02-02T02:04:55.354Z,91.34
2023-02-02T02:07:23.394Z,91.57
2023-02-02T02:09:50.119Z,91.11
2023-02-02T02:12:16.828Z,91.46
2023-02-02T02:15:05.023Z,91.38
2023-02-02T02:18:14.444Z,91.76
2023-02-02T02:21:17.112Z,91.74
2023-02-02T02:25:00.186Z,91.71
2023-02-02T02:27:44.838Z,91.82
2023-02-02T02:30:46.803Z,91.45
2023-02-02T02:33:39.990Z,91.95
2023-02-02T02:36:44.995Z,91.53
2023-02-02T02:39:22.306Z,91.81
2023-02-02T02:41:55.856Z,91.81
2023-02-02T02:44:22.682Z,91.63
2023-02-02T02:46:50.296Z,91.38
2023-02-02T02:49:17.868Z,90.80
2023-02-02T02:51:50.489Z,90.80
2023-02-02T02:54:33.963Z,90.51
2023-02-02T02:57:34.419Z,90.81
2023-02-02T03:00:07.632Z,90.39
2023-02-02T03:03:05.219Z,90.18
2023-02-02T03:05:54.402Z,90.40
2023-02-02T03:08:29.182Z,90.35
2023-02-02T03:10:57.730Z,89.53
2023-02-02T03:13:25.884Z,89.16
2023-02-02T03:15:52.663Z,89.33
2023-02-02T03:18:21.694Z,89.52
2023-02-02T03:20:48.098Z,89.17
2023-02-02T03:23:14.746Z,89.36
2023-02-02T03:25:41.496Z,89.86
2023-02-02T03:28:07.873Z,90.00
2023-02-02T03:30:34.537Z,90.48
2023-02-02T03:33:01.029Z,90.63
2023-02-02T03:35:27.488Z,90.77
2023-02-02T03:37:53.959Z,91.28
2023-02-02T03:40:20.379Z,91.07
2023-02-02T03:42:46.799Z,91.58
2023-02-02T03:45:13.314Z,91.31
2023-02-02T03:47:39.678Z,91.54
2023-02-02T03:50:09.760Z,91.38
2023-02-02T03:52:36.281Z,91.47
2023-02-02T03:55:02.669Z,91.68
2023-02-02T03:57:29.037Z,92.07
2023-02-02T03:59:55.410Z,92.04
2023-02-02T04:02:21.960Z,92.09
2023-02-02T04:04:48.379Z,92.12
2023-02-02T04:07:14.926Z,92.42
2023-02-02T04:09:41.329Z,92.62
2023-02-02T04:12:07.710Z,92.51
2023-02-02T04:14:34.088Z,92.40
2023-02-02T04:17:00.485Z,92.22
2023-02-02T04:19:26.881Z,92.46
2023-02-02T04:21:53.876Z,92.52
2023-02-02T04:24:20.264Z,92.50
2023-02-02T04:26:46.638Z,92.52
2023-02-02T04:29:13.214Z,92.58
2023-02-02T04:31:39.576Z,92.69
2023-02-02T04:34:05.978Z,92.76
2023-02-02T04:36:32.437Z,92.60
2023-02-02T04:38:58.835Z,92.56
2023-02-02T04:41:25.359Z,92.48
2023-02-02T04:43:51.976Z,92.95
2023-02-02T04:46:18.669Z,92.96
2023-02-02T04:48:45.024Z,92.90
2023-02-02T04:51:14.119Z,92.97
2023-02-02T04:53:41.722Z,93.08
2023-02-02T04:56:13.792Z,92.94
2023-02-02T04:58:40.735Z,93.04
2023-02-02T05:01:12.897Z,92.79
2023-02-02T05:03:39.336Z,92.47
2023-02-02T05:06:06.525Z,92.57
2023-02-02T05:08:33.190Z,92.26
2023-02-02T05:10:59.551Z,91.92
2023-02-02T05:13:26.133Z,91.36
2023-02-02T05:15:53.879Z,91.33
2023-02-02T05:18:20.250Z,90.78
2023-02-02T05:20:46.628Z,90.94
2023-02-02T05:23:12.957Z,90.65
2023-02-02T05:25:39.304Z,90.29
2023-02-02T05:28:05.671Z,90.19
2023-02-02T05:30:33.580Z,89.55
2023-02-02T05:33:00.105Z,89.54
2023-02-02T05:35:26.762Z,89.84
2023-02-02T05:37:53.347Z,89.12
2023-02-02T05:40:19.856Z,88.71
2023-02-02T05:42:48.457Z,88.66
2023-02-02T05:45:15.017Z,88.17
2023-02-02T05:47:41.402Z,88.06
2023-02-02T05:50:09.372Z,88.69
2023-02-02T05:52:37.236Z,88.64
2023-02-02T05:55:04.459Z,88.31
2023-02-02T05:57:30.835Z,88.38
2023-02-02T05:59:57.194Z,88.36
2023-02-02T06:02:23.564Z,88.12
2023-02-02T06:04:50.076Z,88.12
2023-02-02T06:07:16.427Z,87.90
2023-02-02T06:09:42.767Z,87.83
2023-02-02T06:12:09.708Z,87.90
2023-02-02T06:14:36.052Z,88.09
2023-02-02T06:17:02.459Z,87.68
2023-02-02T06:19:28.828Z,88.29
2023-02-02T06:21:55.479Z,88.11
2023-02-02T06:24:21.825Z,88.71
2023-02-02T06:26:48.241Z,88.46
2023-02-02T06:29:14.855Z,88.63
2023-02-02T06:31:41.391Z,89.03
2023-02-02T06:34:10.258Z,88.46
2023-02-02T06:36:36.634Z,88.80
2023-02-02T06:39:04.720Z,88.64
2023-02-02T06:41:31.577Z,88.70
2023-02-02T06:43:57.934Z,88.78
2023-02-02T06:46:24.285Z,89.11
2023-02-02T06:48:50.696Z,88.78
2023-02-02T06:51:17.074Z,88.84
2023-02-02T06:53:43.401Z,89.16
2023-02-02T06:56:12.920Z,89.07
2023-02-02T06:58:39.463Z,88.84
2023-02-02T07:01:08.822Z,89.55
2023-02-02T07:03:36.114Z,89.11
2023-02-02T07:06:16.768Z,88.64
2023-02-02T07:08:43.162Z,89.11
2023-02-02T07:11:15.963Z,89.11
2023-02-02T07:13:44.728Z,89.21
2023-02-02T07:16:12.898Z,89.10
2023-02-02T07:18:40.084Z,89.09
2023-02-02T07:21:06.816Z,88.36
2023-02-02T07:23:34.175Z,88.80
2023-02-02T07:26:08.591Z,88.90
2023-02-02T07:28:35.580Z,88.72
2023-02-02T07:31:16.181Z,88.50
2023-02-02T07:33:44.011Z,88.29
2023-02-02T07:36:11.467Z,88.75
2023-02-02T07:38:38.143Z,88.68
2023-02-02T07:41:04.974Z,88.62
2023-02-02T07:43:31.559Z,88.92
2023-02-02T07:46:02.704Z,89.09
2023-02-02T07:48:30.609Z,88.85
2023-02-02T07:51:01.193Z,89.36
2023-02-02T07:53:28.677Z,89.62
2023-02-02T07:56:15.501Z,89.62
2023-02-02T07:58:43.046Z,89.54
2023-02-02T08:01:11.639Z,89.57
2023-02-02T08:03:38.898Z,90.03
2023-02-02T08:06:35.998Z,89.96
2023-02-02T08:09:05.596Z,90.04
2023-02-02T08:11:31.967Z,89.80
2023-02-02T08:14:00.140Z,90.07
2023-02-02T08:16:28.368Z,90.04
2023-02-02T08:18:55.363Z,90.45
2023-02-02T08:21:22.055Z,90.47
2023-02-02T08:23:48.785Z,90.30
2023-02-02T08:26:18.146Z,90.71
2023-02-02T08:28:47.362Z,90.78
2023-02-02T08:31:21.367Z,90.82
2023-02-02T08:33:48.486Z,91.25
2023-02-02T08:36:16.962Z,91.03
2023-02-02T08:38:43.796Z,91.40
2023-02-02T08:41:13.468Z,91.03
2023-02-02T08:43:40.194Z,91.43
2023-02-02T08:46:08.597Z,91.21
2023-02-02T08:48:36.275Z,91.63
2023-02-02T08:51:04.147Z,91.17
2023-02-02T08:53:30.994Z,91.39
2023-02-02T08:56:02.107Z,91.26
2023-02-02T08:58:28.606Z,91.72
2023-02-02T09:00:55.089Z,91.16
2023-02-02T09:03:21.469Z,91.42
2023-02-02T09:05:47.851Z,91.63
2023-02-02T09:08:14.259Z,91.55
2023-02-02T09:10:40.611Z,91.38
2023-02-02T09:13:06.980Z,91.56
2023-02-02T09:15:33.400Z,91.74
2023-02-02T09:17:59.753Z,91.82
2023-02-02T09:20:26.198Z,92.00
2023-02-02T09:22:55.471Z,92.48
2023-02-02T09:25:22.110Z,92.85
2023-02-02T09:27:48.617Z,92.16
2023-02-02T09:30:15.155Z,92.68
2023-02-02T09:32:41.565Z,92.36
2023-02-02T09:35:08.352Z,92.62
2023-02-02T09:37:35.053Z,92.61
2023-02-02T09:40:01.565Z,92.51
2023-02-02T09:42:40.300Z,92.40
2023-02-02T09:45:48.868Z,92.64
2023-02-02T09:48:40.285Z,92.51
2023-02-02T09:51:13.841Z,92.33
2023-02-02T09:53:55.254Z,92.58
2023-02-02T09:56:40.982Z,92.32
2023-02-02T09:59:20.519Z,92.54
2023-02-02T10:01:51.946Z,92.29
2023-02-02T10:04:36.183Z,92.13
2023-02-02T10:07:35.414Z,91.79
2023-02-02T10:10:18.018Z,92.12
2023-02-02T10:12:59.175Z,92.23
2023-02-02T10:15:34.989Z,92.79
2023-02-02T10:18:11.523Z,92.11
2023-02-02T10:20:51.165Z,92.19
2023-02-02T10:23:28.133Z,92.48
2023-02-02T10:26:08.509Z,92.05
2023-02-02T10:28:49.329Z,92.31
2023-02-02T10:31:41.687Z,91.88
2023-02-02T10:34:24.447Z,92.05
2023-02-02T10:36:56.679Z,91.50
2023-02-02T10:39:41.330Z,91.62
2023-02-02T10:42:30.004Z,91.28
2023-02-02T10:45:04.396Z,91.26
2023-02-02T10:47:33.595Z,91.12
2023-02-02T10:50:15.627Z,90.93
2023-02-02T10:52:56.298Z,91.12
2023-02-02T10:55:32.732Z,91.05
2023-02-02T10:58:11.227Z,90.99
2023-02-02T11:00:55.787Z,90.87
2023-02-02T11:03:26.724Z,90.42
2023-02-02T11:06:11.785Z,90.57
2023-02-02T11:08:41.210Z,90.62
2023-02-02T11:11:20.927Z,90.60
2023-02-02T11:13:55.232Z,90.61
2023-02-02T11:16:28.455Z,90.10
2023-02-02T11:18:59.831Z,90.32
2023-02-02T11:21:29.091Z,89.81
2023-02-02T11:24:02.758Z,90.31
2023-02-02T11:27:03.056Z,89.67
2023-02-02T11:29:32.670Z,89.81
2023-02-02T11:32:18.702Z,89.76
2023-02-02T11:34:45.045Z,89.55
2023-02-02T11:37:20.632Z,89.09
2023-02-02T11:39:47.011Z,89.48
2023-02-02T11:42:23.886Z,88.99
2023-02-02T11:44:53.282Z,88.91
2023-02-02T11:47:25.919Z,89.17
2023-02-02T11:49:55.354Z,88.87
2023-02-02T11:52:26.873Z,88.94
2023-02-02T11:54:58.084Z,88.54
2023-02-02T11:57:26.290Z,88.36
2023-02-02T12:00:10.744Z,88.37
2023-02-02T12:02:37.387Z,88.61
2023-02-02T12:05:09.755Z,88.76
2023-02-02T12:07:37.420Z,88.25
2023-02-02T12:10:36.745Z,88.13
2023-02-02T12:13:31.660Z,88.40
2023-02-02T12:16:00.814Z,88.70
2023-02-02T12:18:53.029Z,87.78
2023-02-02T12:21:41.281Z,87.34
2023-02-02T12:24:18.237Z,88.31
2023-02-02T12:26:54.895Z,88.46
2023-02-02T12:29:47.543Z,88.28
2023-02-02T12:32:21.992Z,87.29
2023-02-02T12:35:14.843Z,87.78
2023-02-02T12:37:48.606Z,87.89
2023-02-02T12:40:25.366Z,87.46
2023-02-02T12:43:06.716Z,87.89
2023-02-02T12:45:45.831Z,87.99
2023-02-02T12:48:21.699Z,87.25
2023-02-02T12:51:12.087Z,86.89
2023-02-02T12:54:34.478Z,87.33
2023-02-02T12:56:56.090Z,88.16
2023-02-02T12:59:47.176Z,87.64
2023-02-02T13:02:44.556Z,88.23
2023-02-02T13:05:23.039Z,88.09
2023-02-02T13:07:58.139Z,88.13
2023-02-02T13:10:36.860Z,88.27
2023-02-02T13:13:13.782Z,88.74
2023-02-02T13:15:47.879Z,88.90
2023-02-02T13:18:20.983Z,89.00
2023-02-02T13:20:55.310Z,87.89
2023-02-02T13:23:27.435Z,88.47
2023-02-02T13:25:59.730Z,88.70
2023-02-02T13:28:36.772Z,88.67
2023-02-02T13:31:09.768Z,88.86
2023-02-02T13:33:37.918Z,88.42
2023-02-02T13:36:17.847Z,88.66
2023-02-02T13:38:45.845Z,88.63
2023-02-02T13:41:13.413Z,88.25
2023-02-02T13:43:57.970Z,88.39
2023-02-02T13:46:34.134Z,88.48
2023-02-02T13:49:13.146Z,88.44
2023-02-02T13:51:45.883Z,88.38
2023-02-02T13:54:33.543Z,88.27
2023-02-02T13:57:19.339Z,88.62
2023-02-02T14:00:01.557Z,88.61
2023-02-02T14:02:42.142Z,88.97
2023-02-02T14:05:21.847Z,88.78
2023-02-02T14:07:49.220Z,89.01
2023-02-02T14:10:25.769Z,89.51
2023-02-02T14:12:53.410Z,89.30
2023-02-02T14:15:35.976Z,89.92
2023-02-02T14:18:02.350Z,90.49
2023-02-02T14:20:42.402Z,90.21
2023-02-02T14:23:45.976Z,89.96
2023-02-02T14:26:12.520Z,90.09
2023-02-02T14:28:42.517Z,90.17
2023-02-02T14:31:29.602Z,90.20
2023-02-02T14:34:26.582Z,90.83
2023-02-02T14:37:26.215Z,91.13
2023-02-02T14:40:12.376Z,91.13
2023-02-02T14:43:27.466Z,91.85
2023-02-02T14:46:15.450Z,91.44
2023-02-02T14:49:07.474Z,92.04
2023-02-02T14:51:45.736Z,91.58
2023-02-02T14:54:21.588Z,91.61
2023-02-02T14:56:52.876Z,91.44
2023-02-02T14:59:24.516Z,91.65
2023-02-02T15:02:15.232Z,91.26
2023-02-02T15:04:42.283Z,91.35
2023-02-02T15:07:23.643Z,91.52
2023-02-02T15:09:51.741Z,91.33
2023-02-02T15:12:22.480Z,91.53
2023-02-02T15:15:10.440Z,91.72
2023-02-02T15:17:44.291Z,91.92
2023-02-02T15:20:28.527Z,92.11
2023-02-02T15:23:00.850Z,91.51
2023-02-02T15:26:04.811Z,92.14
2023-02-02T15:28:47.237Z,92.30
2023-02-02T15:31:27.827Z,91.93
2023-02-02T15:33:59.640Z,92.64
2023-02-02T15:36:31.051Z,93.02
2023-02-02T15:39:19.189Z,92.43
2023-02-02T15:41:47.588Z,92.39
2023-02-02T15:44:26.464Z,92.81
2023-02-02T15:46:54.718Z,92.64
2023-02-02T15:49:34.176Z,92.85
2023-02-02T15:52:10.702Z,92.92
2023-02-02T15:54:39.946Z,92.92
2023-02-02T15:57:28.423Z,93.27
2023-02-02T15:59:55.746Z,93.58
2023-02-02T16:02:38.999Z,93.32
2023-02-02T16:05:24.564Z,93.73
2023-02-02T16:08:03.756Z,93.38
2023-02-02T16:10:31.748Z,93.88
2023-02-02T16:12:58.504Z,93.60
2023-02-02T16:15:28.237Z,93.04
2023-02-02T16:18:03.970Z,93.68
2023-02-02T16:20:33.891Z,93.12
2023-02-02T16:23:04.532Z,93.39
2023-02-02T16:25:36.606Z,93.71
2023-02-02T16:28:03.928Z,93.26
2023-02-02T16:30:36.699Z,93.88
2023-02-02T16:33:40.474Z,93.59
2023-02-02T16:36:26.651Z,93.33
2023-02-02T16:38:54.940Z,93.87
2023-02-02T16:41:36.957Z,93.43
2023-02-02T16:44:48.634Z,93.14
2023-02-02T16:47:26.914Z,93.61
2023-02-02T16:50:08.451Z,94.16
2023-02-02T16:52:47.933Z,93.93
2023-02-02T16:55:17.993Z,93.83
2023-02-02T16:57:46.933Z,93.30
2023-02-02T17:00:24.904Z,93.67
2023-02-02T17:03:10.807Z,93.68
2023-02-02T17:05:51.152Z,93.72
2023-02-02T17:08:26.650Z,93.26
2023-02-02T17:11:24.877Z,93.21
2023-02-02T17:13:52.058Z,93.38
2023-02-02T17:16:21.067Z,93.30
2023-02-02T17:18:48.249Z,92.46
2023-02-02T17:21:18.991Z,92.59
2023-02-02T17:23:45.798Z,93.08
2023-02-02T17:26:12.765Z,92.83
2023-02-02T17:28:41.126Z,93.12
2023-02-02T17:31:16.079Z,93.31
2023-02-02T17:33:43.391Z,93.06
2023-02-02T17:36:13.065Z,92.92
2023-02-02T17:38:40.062Z,93.29
2023-02-02T17:41:06.731Z,93.42
2023-02-02T17:43:33.646Z,93.82
2023-02-02T17:46:00.336Z,93.83
2023-02-02T17:48:26.666Z,93.78
2023-02-02T17:50:53.064Z,93.69
2023-02-02T17:53:21.579Z,93.34
2023-02-02T17:55:52.248Z,94.08
2023-02-02T17:58:18.982Z,93.82
2023-02-02T18:00:48.051Z,93.71
2023-02-02T18:03:26.501Z,93.83
2023-02-02T18:05:52.927Z,93.88
2023-02-02T18:08:19.687Z,93.89
2023-02-02T18:10:46.057Z,93.93
2023-02-02T18:13:17.438Z,94.32
2023-02-02T18:15:44.079Z,93.71
2023-02-02T18:18:12.435Z,93.83
2023-02-02T18:20:43.210Z,93.89
2023-02-02T18:23:09.980Z,93.90
2023-02-02T18:25:37.690Z,93.65
2023-02-02T18:28:04.243Z,93.95
2023-02-02T18:30:30.687Z,93.87
2023-02-02T18:32:57.030Z,93.67
2023-02-02T18:35:23.752Z,94.03
2023-02-02T18:37:50.878Z,93.90
2023-02-02T18:40:18.309Z,93.79
2023-02-02T18:42:44.797Z,93.78
2023-02-02T18:45:11.575Z,93.82
2023-02-02T18:47:39.405Z,93.50
2023-02-02T18:50:07.953Z,93.67
2023-02-02T18:52:34.811Z,93.77
2023-02-02T18:55:01.457Z,94.05
2023-02-02T18:57:30.129Z,93.45
2023-02-02T18:59:56.480Z,94.11
2023-02-02T19:02:22.819Z,93.57
2023-02-02T19:05:07.866Z,93.88
2023-02-02T19:07:52.641Z,93.50
2023-02-02T19:10:19.465Z,93.98
2023-02-02T19:12:55.655Z,93.63
2023-02-02T19:15:23.047Z,93.51
2023-02-02T19:17:52.542Z,93.12
2023-02-02T19:20:25.996Z,93.66
2023-02-02T19:22:56.245Z,93.41
2023-02-02T19:25:22.635Z,92.84
2023-02-02T19:27:48.978Z,93.13
2023-02-02T19:30:19.719Z,92.96
2023-02-02T19:32:46.101Z,92.51
2023-02-02T19:35:19.523Z,92.27
2023-02-02T19:37:48.330Z,92.34
2023-02-02T19:40:23.424Z,92.62
2023-02-02T19:43:01.312Z,91.78
2023-02-02T19:45:32.941Z,91.66
2023-02-02T19:48:02.416Z,91.53
2023-02-02T19:50:36.642Z,91.87
2023-02-02T19:53:12.092Z,91.51
2023-02-02T19:55:41.420Z,91.26
2023-02-02T19:58:35.293Z,91.23
2023-02-02T20:01:10.159Z,90.91
2023-02-02T20:03:43.119Z,91.02
2023-02-02T20:06:17.960Z,91.02
2023-02-02T20:08:44.406Z,91.51
2023-02-02T20:11:32.529Z,90.77
2023-02-02T20:14:00.478Z,91.37
2023-02-02T20:16:37.746Z,90.71
2023-02-02T20:19:04.136Z,91.26
2023-02-02T20:21:38.244Z,91.31
2023-02-02T20:24:16.766Z,91.53
2023-02-02T20:26:43.301Z,91.25
2023-02-02T20:29:36.318Z,91.20
2023-02-02T20:32:04.911Z,91.86
2023-02-02T20:34:35.383Z,91.80
2023-02-02T20:37:26.987Z,91.02
2023-02-02T20:39:56.415Z,91.62
2023-02-02T20:42:23.317Z,91.51
2023-02-02T20:44:50.352Z,91.83
2023-02-02T20:47:16.743Z,91.21
2023-02-02T20:49:43.734Z,91.11
2023-02-02T20:52:17.912Z,91.63
2023-02-02T20:54:44.284Z,91.50
2023-02-02T20:57:10.630Z,91.17
2023-02-02T20:59:37.069Z,91.01
2023-02-02T21:02:05.163Z,91.34
2023-02-02T21:04:32.319Z,91.47
2023-02-02T21:06:59.495Z,90.49
2023-02-02T21:09:26.492Z,90.97
2023-02-02T21:11:52.943Z,91.49
2023-02-02T21:14:19.624Z,90.95
2023-02-02T21:16:45.975Z,91.14
2023-02-02T21:19:12.430Z,90.98
2023-02-02T21:21:38.993Z,91.21
2023-02-02T21:24:05.813Z,90.72
2023-02-02T21:26:32.300Z,90.46
2023-02-02T21:28:59.164Z,90.76
2023-02-02T21:31:26.443Z,90.87
2023-02-02T21:33:53.689Z,90.51
2023-02-02T21:36:44.861Z,90.57
2023-02-02T21:39:23.209Z,90.24
2023-02-02T21:41:50.463Z,89.90
2023-02-02T21:44:19.645Z,90.30
2023-02-02T21:46:48.759Z,90.13
2023-02-02T21:49:20.347Z,89.92
2023-02-02T21:51:46.709Z,89.39
2023-02-02T21:54:36.955Z,89.01
2023-02-02T21:57:14.028Z,88.82
2023-02-02T21:59:42.373Z,89.59
2023-02-02T22:02:34.710Z,89.49
2023-02-02T22:05:02.153Z,89.10
2023-02-02T22:07:28.873Z,89.45
2023-02-02T22:09:55.546Z,88.87
2023-02-02T22:12:25.172Z,89.14
2023-02-02T22:15:00.258Z,88.77
2023-02-02T22:17:37.523Z,89.11
2023-02-02T22:20:17.277Z,88.71
2023-02-02T22:22:46.570Z,88.89
2023-02-02T22:25:15.629Z,89.17
2023-02-02T22:28:01.315Z,88.74
2023-02-02T22:30:49.098Z,88.76
2023-02-02T22:33:16.119Z,88.59
2023-02-02T22:35:43.008Z,88.33
2023-02-02T22:38:10.563Z,88.08
2023-02-02T22:40:37.822Z,88.42
2023-02-02T22:43:06.237Z,87.89
2023-02-02T22:45:32.676Z,88.04
2023-02-02T22:47:59.330Z,88.29
2023-02-02T22:50:28.518Z,88.22
2023-02-02T22:52:55.680Z,88.11
2023-02-02T22:55:22.742Z,88.17
2023-02-02T22:57:49.209Z,87.82
2023-02-02T23:00:30.615Z,87.56
2023-02-02T23:02:57.508Z,87.70
2023-02-02T23:05:25.559Z,87.45
2023-02-02T23:07:53.499Z,87.03
2023-02-02T23:10:22.799Z,87.02
2023-02-02T23:12:49.677Z,86.65
2023-02-02T23:15:16.867Z,86.60
2023-02-02T23:17:43.231Z,87.00
2023-02-02T23:20:13.200Z,86.53
2023-02-02T23:22:39.560Z,86.54
2023-02-02T23:25:06.380Z,86.56
2023-02-02T23:27:32.993Z,86.36
2023-02-02T23:29:59.451Z,86.39
2023-02-02T23:32:25.799Z,86.49
2023-02-02T23:34:52.144Z,86.50
2023-02-02T23:37:18.557Z,86.53
2023-02-02T23:39:45.015Z,85.90
2023-02-02T23:42:11.319Z,86.04
2023-02-02T23:44:37.669Z,85.64
2023-02-02T23:47:05.010Z,85.76
2023-02-02T23:49:32.715Z,86.12
2023-02-02T23:51:59.647Z,85.95
2023-02-02T23:54:27.398Z,85.63
2023-02-02T23:56:53.825Z,85.75
2023-02-02T23:59:20.177Z,85.19
